Marydell, Kentucky
Current Conditions -  °F | °C
As of 7:53 AM on Tuesday 21 Oct 2014 (Local Time) from KLOZ Reporting Station
Haze Haze  
Wind Chill: 44°   Ceiling: 900
Heat Index: 44°   Visibility: 5mi
Dew Point: 41°   Wind: 0mph
Humidity: 89%   Direction: NA
Pressure: 29.99"   Gusts: NA
Location:  37.11°N, 83.91°W
Report Text: KLOZ 211153Z AUTO 00000KT 5SM BR BKN009 07/05 A2999 RMK AO2 SLP154 70001 T00670050 10117 20067 53009
Loading
Personal Weather Stations






























Interactive Weather Map
Tropical Storm Tracking
New forecast layout! Learn more

10-Day Weather Forecast

Advertisements
Track Severe Weather on mobile